sensor_id;sensor_type;location;lat;lon;timestamp;pressure;altitude;pressure_sealevel;temperature;humidity
48622;BME280;34421;48.944;9.460;2023-01-08T00:00:29;98001.59;;;4.64;72.45
48622;BME280;34421;48.944;9.460;2023-01-08T00:02:54;97989.38;;;4.63;72.47
48622;BME280;34421;48.944;9.460;2023-01-08T00:05:19;97996.31;;;4.64;72.24
48622;BME280;34421;48.944;9.460;2023-01-08T00:07:44;98001.94;;;4.61;72.63
48622;BME280;34421;48.944;9.460;2023-01-08T00:10:10;97997.03;;;4.58;72.55
48622;BME280;34421;48.944;9.460;2023-01-08T00:12:35;97996.19;;;4.57;73.03
48622;BME280;34421;48.944;9.460;2023-01-08T00:15:00;97990.13;;;4.57;72.76
48622;BME280;34421;48.944;9.460;2023-01-08T00:17:25;97987.69;;;4.55;72.89
48622;BME280;34421;48.944;9.460;2023-01-08T00:19:50;97986.84;;;4.55;72.43
48622;BME280;34421;48.944;9.460;2023-01-08T00:22:16;97966.22;;;4.44;72.65
48622;BME280;34421;48.944;9.460;2023-01-08T00:24:41;97969.59;;;4.38;73.23
48622;BME280;34421;48.944;9.460;2023-01-08T00:27:06;97976.66;;;4.37;73.53
48622;BME280;34421;48.944;9.460;2023-01-08T00:29:31;97966.13;;;4.37;72.49
48622;BME280;34421;48.944;9.460;2023-01-08T00:31:57;97959.31;;;4.43;74.19
48622;BME280;34421;48.944;9.460;2023-01-08T00:34:22;97963.13;;;4.40;72.38
48622;BME280;34421;48.944;9.460;2023-01-08T00:36:47;97960.84;;;4.37;73.68
48622;BME280;34421;48.944;9.460;2023-01-08T00:39:13;97965.44;;;4.28;72.20
48622;BME280;34421;48.944;9.460;2023-01-08T00:41:38;97959.88;;;4.23;72.77
48622;BME280;34421;48.944;9.460;2023-01-08T00:44:03;97954.78;;;4.22;73.88
48622;BME280;34421;48.944;9.460;2023-01-08T00:46:28;97959.81;;;4.17;73.74
48622;BME280;34421;48.944;9.460;2023-01-08T00:48:53;97952.72;;;4.17;72.58
48622;BME280;34421;48.944;9.460;2023-01-08T00:51:19;97957.25;;;4.23;73.58
48622;BME280;34421;48.944;9.460;2023-01-08T00:53:44;97943.50;;;4.28;73.30
48622;BME280;34421;48.944;9.460;2023-01-08T00:56:09;97935.59;;;4.28;73.05
48622;BME280;34421;48.944;9.460;2023-01-08T00:58:35;97919.63;;;4.29;73.69
48622;BME280;34421;48.944;9.460;2023-01-08T01:01:00;97919.69;;;4.36;73.62
48622;BME280;34421;48.944;9.460;2023-01-08T01:03:26;97912.06;;;4.41;74.19
48622;BME280;34421;48.944;9.460;2023-01-08T01:06:01;97911.50;;;4.46;73.72
48622;BME280;34421;48.944;9.460;2023-01-08T01:08:26;97908.47;;;4.49;73.10
48622;BME280;34421;48.944;9.460;2023-01-08T01:10:51;97907.31;;;4.51;73.75
48622;BME280;34421;48.944;9.460;2023-01-08T01:13:17;97911.59;;;4.52;72.88
48622;BME280;34421;48.944;9.460;2023-01-08T01:15:42;97907.94;;;4.53;73.60
48622;BME280;34421;48.944;9.460;2023-01-08T01:18:07;97903.22;;;4.49;73.47
48622;BME280;34421;48.944;9.460;2023-01-08T01:20:32;97907.22;;;4.45;73.90
48622;BME280;34421;48.944;9.460;2023-01-08T01:22:57;97900.56;;;4.49;74.30
48622;BME280;34421;48.944;9.460;2023-01-08T01:25:23;97892.50;;;4.50;73.06
48622;BME280;34421;48.944;9.460;2023-01-08T01:27:48;97902.47;;;4.55;74.00
48622;BME280;34421;48.944;9.460;2023-01-08T01:30:13;97899.03;;;4.54;72.71
48622;BME280;34421;48.944;9.460;2023-01-08T01:32:38;97907.41;;;4.58;73.53
48622;BME280;34421;48.944;9.460;2023-01-08T01:35:04;97910.22;;;4.56;72.30
48622;BME280;34421;48.944;9.460;2023-01-08T01:37:29;97911.38;;;4.54;72.72
48622;BME280;34421;48.944;9.460;2023-01-08T01:39:54;97920.75;;;4.56;73.44
48622;BME280;34421;48.944;9.460;2023-01-08T01:42:20;97927.66;;;4.57;72.97
48622;BME280;34421;48.944;9.460;2023-01-08T01:45:14;97928.50;;;4.58;71.65
48622;BME280;34421;48.944;9.460;2023-01-08T01:47:40;97911.28;;;4.62;73.08
48622;BME280;34421;48.944;9.460;2023-01-08T01:50:16;97916.19;;;4.65;72.31
48622;BME280;34421;48.944;9.460;2023-01-08T01:53:02;97929.00;;;4.68;72.22
48622;BME280;34421;48.944;9.460;2023-01-08T01:55:29;97927.00;;;4.70;72.93
48622;BME280;34421;48.944;9.460;2023-01-08T02:00:57;97906.50;;;4.72;73.60
48622;BME280;34421;48.944;9.460;2023-01-08T02:03:24;97920.97;;;4.76;72.28
48622;BME280;34421;48.944;9.460;2023-01-08T02:05:52;97925.69;;;4.81;72.10
48622;BME280;34421;48.944;9.460;2023-01-08T02:11:09;97911.94;;;4.86;73.13
48622;BME280;34421;48.944;9.460;2023-01-08T02:13:38;97908.94;;;4.89;72.06
48622;BME280;34421;48.944;9.460;2023-01-08T02:16:07;97903.66;;;4.89;72.87
48622;BME280;34421;48.944;9.460;2023-01-08T02:18:41;97901.56;;;4.84;73.03
48622;BME280;34421;48.944;9.460;2023-01-08T02:21:12;97896.72;;;4.88;73.36
48622;BME280;34421;48.944;9.460;2023-01-08T02:23:45;97886.44;;;4.93;72.22
48622;BME280;34421;48.944;9.460;2023-01-08T02:26:25;97878.53;;;4.93;72.72
48622;BME280;34421;48.944;9.460;2023-01-08T02:28:53;97885.44;;;4.94;72.61
48622;BME280;34421;48.944;9.460;2023-01-08T02:31:20;97874.91;;;4.94;72.19
48622;BME280;34421;48.944;9.460;2023-01-08T02:33:47;97867.59;;;4.96;73.47
48622;BME280;34421;48.944;9.460;2023-01-08T02:39:09;97856.53;;;5.07;72.68
48622;BME280;34421;48.944;9.460;2023-01-08T02:41:40;97847.97;;;5.05;72.16
48622;BME280;34421;48.944;9.460;2023-01-08T02:44:09;97845.34;;;5.05;73.15
48622;BME280;34421;48.944;9.460;2023-01-08T02:46:36;97831.16;;;5.06;72.97
48622;BME280;34421;48.944;9.460;2023-01-08T02:49:06;97832.22;;;5.12;72.33
48622;BME280;34421;48.944;9.460;2023-01-08T02:51:39;97822.09;;;5.15;72.01
48622;BME280;34421;48.944;9.460;2023-01-08T02:54:12;97838.16;;;5.20;72.61
48622;BME280;34421;48.944;9.460;2023-01-08T02:56:48;97818.94;;;5.27;72.07
48622;BME280;34421;48.944;9.460;2023-01-08T02:59:14;97825.63;;;5.29;71.27
48622;BME280;34421;48.944;9.460;2023-01-08T03:01:40;97827.47;;;5.29;71.79
48622;BME280;34421;48.944;9.460;2023-01-08T03:04:07;97815.06;;;5.29;72.56
48622;BME280;34421;48.944;9.460;2023-01-08T03:06:33;97804.59;;;5.36;72.59
48622;BME280;34421;48.944;9.460;2023-01-08T03:08:59;97809.88;;;5.36;71.91
48622;BME280;34421;48.944;9.460;2023-01-08T03:11:24;97809.66;;;5.37;72.42
48622;BME280;34421;48.944;9.460;2023-01-08T03:16:51;97802.94;;;5.35;71.65
48622;BME280;34421;48.944;9.460;2023-01-08T03:21:41;97800.53;;;5.40;71.47
48622;BME280;34421;48.944;9.460;2023-01-08T03:24:08;97804.00;;;5.40;71.56
48622;BME280;34421;48.944;9.460;2023-01-08T03:26:36;97801.78;;;5.44;72.79
48622;BME280;34421;48.944;9.460;2023-01-08T03:29:01;97792.84;;;5.45;72.66
48622;BME280;34421;48.944;9.460;2023-01-08T03:31:28;97801.38;;;5.47;71.75
48622;BME280;34421;48.944;9.460;2023-01-08T03:33:58;97800.16;;;5.43;71.55
48622;BME280;34421;48.944;9.460;2023-01-08T03:36:25;97791.22;;;5.44;72.03
48622;BME280;34421;48.944;9.460;2023-01-08T03:39:25;97783.53;;;5.49;71.72
48622;BME280;34421;48.944;9.460;2023-01-08T03:41:43;97786.84;;;5.58;72.07
48622;BME280;34421;48.944;9.460;2023-01-08T03:44:08;97783.00;;;5.60;71.78
48622;BME280;34421;48.944;9.460;2023-01-08T03:46:36;97779.13;;;5.56;71.92
48622;BME280;34421;48.944;9.460;2023-01-08T03:49:02;97777.47;;;5.55;72.05
48622;BME280;34421;48.944;9.460;2023-01-08T03:51:28;97781.16;;;5.61;71.37
48622;BME280;34421;48.944;9.460;2023-01-08T03:54:02;97772.66;;;5.65;71.74
48622;BME280;34421;48.944;9.460;2023-01-08T03:56:28;97772.28;;;5.68;72.49
48622;BME280;34421;48.944;9.460;2023-01-08T03:58:53;97765.16;;;5.69;72.45
48622;BME280;34421;48.944;9.460;2023-01-08T04:01:18;97760.09;;;5.74;72.33
48622;BME280;34421;48.944;9.460;2023-01-08T04:03:43;97760.53;;;5.78;71.60
48622;BME280;34421;48.944;9.460;2023-01-08T04:06:08;97764.22;;;5.83;70.99
48622;BME280;34421;48.944;9.460;2023-01-08T04:08:34;97742.47;;;5.88;71.79
48622;BME280;34421;48.944;9.460;2023-01-08T04:10:59;97756.47;;;5.88;71.32
48622;BME280;34421;48.944;9.460;2023-01-08T04:13:24;97753.03;;;5.88;71.22
48622;BME280;34421;48.944;9.460;2023-01-08T04:15:49;97748.00;;;5.93;71.36
48622;BME280;34421;48.944;9.460;2023-01-08T04:18:15;97751.66;;;5.92;71.60
48622;BME280;34421;48.944;9.460;2023-01-08T04:20:43;97746.81;;;5.96;71.35
48622;BME280;34421;48.944;9.460;2023-01-08T04:23:09;97752.28;;;5.94;71.27
48622;BME280;34421;48.944;9.460;2023-01-08T04:25:35;97750.88;;;5.98;71.30
48622;BME280;34421;48.944;9.460;2023-01-08T04:28:01;97756.16;;;5.98;72.17
48622;BME280;34421;48.944;9.460;2023-01-08T04:30:26;97747.41;;;5.98;72.39
48622;BME280;34421;48.944;9.460;2023-01-08T04:32:51;97738.66;;;6.04;72.01
48622;BME280;34421;48.944;9.460;2023-01-08T04:35:16;97741.34;;;6.10;72.30
48622;BME280;34421;48.944;9.460;2023-01-08T04:37:41;97739.94;;;6.14;72.48
48622;BME280;34421;48.944;9.460;2023-01-08T04:40:07;97739.13;;;6.21;71.22
48622;BME280;34421;48.944;9.460;2023-01-08T04:42:32;97750.31;;;6.23;71.28
48622;BME280;34421;48.944;9.460;2023-01-08T04:44:57;97750.91;;;6.18;71.63
48622;BME280;34421;48.944;9.460;2023-01-08T04:47:22;97752.97;;;6.16;72.49
48622;BME280;34421;48.944;9.460;2023-01-08T04:49:48;97753.78;;;6.16;72.37
48622;BME280;34421;48.944;9.460;2023-01-08T04:52:13;97760.25;;;6.14;72.54
48622;BME280;34421;48.944;9.460;2023-01-08T04:54:38;97752.13;;;6.15;71.32
48622;BME280;34421;48.944;9.460;2023-01-08T04:57:03;97748.66;;;6.15;71.95
48622;BME280;34421;48.944;9.460;2023-01-08T04:59:28;97764.75;;;6.20;71.49
48622;BME280;34421;48.944;9.460;2023-01-08T05:01:54;97756.59;;;6.15;72.31
48622;BME280;34421;48.944;9.460;2023-01-08T05:04:20;97744.81;;;6.18;71.51
48622;BME280;34421;48.944;9.460;2023-01-08T05:06:45;97752.56;;;6.19;71.68
48622;BME280;34421;48.944;9.460;2023-01-08T05:09:11;97759.47;;;6.20;70.96
48622;BME280;34421;48.944;9.460;2023-01-08T05:11:36;97761.31;;;6.20;71.90
48622;BME280;34421;48.944;9.460;2023-01-08T05:14:01;97761.69;;;6.16;71.18
48622;BME280;34421;48.944;9.460;2023-01-08T05:16:27;97760.28;;;6.21;71.76
48622;BME280;34421;48.944;9.460;2023-01-08T05:18:52;97765.97;;;6.24;70.91
48622;BME280;34421;48.944;9.460;2023-01-08T05:21:17;97763.16;;;6.26;71.84
48622;BME280;34421;48.944;9.460;2023-01-08T05:23:46;97765.16;;;6.30;70.97
48622;BME280;34421;48.944;9.460;2023-01-08T05:26:14;97785.13;;;6.33;71.25
48622;BME280;34421;48.944;9.460;2023-01-08T05:28:39;97781.66;;;6.39;70.87
48622;BME280;34421;48.944;9.460;2023-01-08T05:31:05;97782.50;;;6.46;71.22
48622;BME280;34421;48.944;9.460;2023-01-08T05:33:30;97786.78;;;6.54;71.21
48622;BME280;34421;48.944;9.460;2023-01-08T05:35:55;97785.16;;;6.59;71.38
48622;BME280;34421;48.944;9.460;2023-01-08T05:38:21;97784.75;;;6.69;71.49
48622;BME280;34421;48.944;9.460;2023-01-08T05:40:46;97781.13;;;6.77;71.38
48622;BME280;34421;48.944;9.460;2023-01-08T05:43:11;97774.59;;;6.86;71.51
48622;BME280;34421;48.944;9.460;2023-01-08T05:45:36;97778.28;;;6.92;71.54
48622;BME280;34421;48.944;9.460;2023-01-08T05:48:05;97774.63;;;6.99;70.49
48622;BME280;34421;48.944;9.460;2023-01-08T05:50:33;97775.00;;;7.10;70.83
48622;BME280;34421;48.944;9.460;2023-01-08T05:52:59;97772.16;;;7.18;71.21
48622;BME280;34421;48.944;9.460;2023-01-08T05:55:24;97767.66;;;7.25;70.94
48622;BME280;34421;48.944;9.460;2023-01-08T05:57:49;97767.44;;;7.33;71.30
48622;BME280;34421;48.944;9.460;2023-01-08T06:00:14;97770.88;;;7.40;71.42
48622;BME280;34421;48.944;9.460;2023-01-08T06:02:40;97768.84;;;7.49;71.31
48622;BME280;34421;48.944;9.460;2023-01-08T06:05:09;97781.84;;;7.57;71.44
48622;BME280;34421;48.944;9.460;2023-01-08T06:07:34;97780.22;;;7.63;71.46
48622;BME280;34421;48.944;9.460;2023-01-08T06:09:59;97781.84;;;7.64;71.48
48622;BME280;34421;48.944;9.460;2023-01-08T06:12:25;97783.06;;;7.68;71.92
48622;BME280;34421;48.944;9.460;2023-01-08T06:14:50;97789.75;;;7.77;71.53
48622;BME280;34421;48.944;9.460;2023-01-08T06:17:15;97787.88;;;7.84;71.37
48622;BME280;34421;48.944;9.460;2023-01-08T06:19:41;97792.16;;;7.92;71.58
48622;BME280;34421;48.944;9.460;2023-01-08T06:22:06;97791.31;;;7.98;71.76
48622;BME280;34421;48.944;9.460;2023-01-08T06:24:31;97798.44;;;8.04;71.57
48622;BME280;34421;48.944;9.460;2023-01-08T06:26:56;97784.53;;;8.09;71.76
48622;BME280;34421;48.944;9.460;2023-01-08T06:29:22;97788.41;;;8.13;71.94
48622;BME280;34421;48.944;9.460;2023-01-08T06:31:47;97785.72;;;8.19;72.21
48622;BME280;34421;48.944;9.460;2023-01-08T06:34:12;97780.16;;;8.28;72.09
48622;BME280;34421;48.944;9.460;2023-01-08T06:36:37;97772.38;;;8.33;72.63
48622;BME280;34421;48.944;9.460;2023-01-08T06:39:04;97770.09;;;8.43;72.84
48622;BME280;34421;48.944;9.460;2023-01-08T06:41:29;97773.75;;;8.49;72.95
48622;BME280;34421;48.944;9.460;2023-01-08T06:43:54;97772.91;;;8.55;73.83
48622;BME280;34421;48.944;9.460;2023-01-08T06:46:19;97763.03;;;8.62;74.36
48622;BME280;34421;48.944;9.460;2023-01-08T06:48:45;97763.81;;;8.69;73.94
48622;BME280;34421;48.944;9.460;2023-01-08T06:51:10;97761.09;;;8.76;74.45
48622;BME280;34421;48.944;9.460;2023-01-08T06:53:35;97761.06;;;8.82;74.58
48622;BME280;34421;48.944;9.460;2023-01-08T06:56:01;97758.34;;;8.89;73.93
48622;BME280;34421;48.944;9.460;2023-01-08T06:58:27;97747.69;;;8.96;74.80
48622;BME280;34421;48.944;9.460;2023-01-08T07:00:52;97753.75;;;9.03;74.95
48622;BME280;34421;48.944;9.460;2023-01-08T07:03:17;97760.03;;;9.08;74.04
48622;BME280;34421;48.944;9.460;2023-01-08T07:05:43;97753.22;;;9.12;75.07
48622;BME280;34421;48.944;9.460;2023-01-08T07:08:12;97762.41;;;9.17;74.21
48622;BME280;34421;48.944;9.460;2023-01-08T07:10:38;97751.13;;;9.21;74.50
48622;BME280;34421;48.944;9.460;2023-01-08T07:13:03;97759.25;;;9.26;74.58
48622;BME280;34421;48.944;9.460;2023-01-08T07:15:28;97759.63;;;9.30;75.42
48622;BME280;34421;48.944;9.460;2023-01-08T07:17:53;97758.38;;;9.32;74.08
48622;BME280;34421;48.944;9.460;2023-01-08T07:20:19;97758.75;;;9.36;74.69
48622;BME280;34421;48.944;9.460;2023-01-08T07:22:44;97761.75;;;9.40;74.63
48622;BME280;34421;48.944;9.460;2023-01-08T07:25:09;97763.16;;;9.42;74.77
48622;BME280;34421;48.944;9.460;2023-01-08T07:27:34;97761.56;;;9.41;75.51
48622;BME280;34421;48.944;9.460;2023-01-08T07:29:59;97764.81;;;9.43;74.68
48622;BME280;34421;48.944;9.460;2023-01-08T07:32:25;97761.91;;;9.45;75.76
48622;BME280;34421;48.944;9.460;2023-01-08T07:34:50;97756.84;;;9.43;75.52
48622;BME280;34421;48.944;9.460;2023-01-08T07:37:18;97764.41;;;9.40;75.55
48622;BME280;34421;48.944;9.460;2023-01-08T07:39:43;97757.50;;;9.39;74.81
48622;BME280;34421;48.944;9.460;2023-01-08T07:42:08;97762.19;;;9.36;75.83
48622;BME280;34421;48.944;9.460;2023-01-08T07:44:33;97757.13;;;9.35;75.93
48622;BME280;34421;48.944;9.460;2023-01-08T07:46:58;97765.28;;;9.33;75.68
48622;BME280;34421;48.944;9.460;2023-01-08T07:49:24;97759.19;;;9.33;75.39
48622;BME280;34421;48.944;9.460;2023-01-08T07:51:49;97769.19;;;9.31;75.99
48622;BME280;34421;48.944;9.460;2023-01-08T07:54:14;97768.63;;;9.29;75.54
48622;BME280;34421;48.944;9.460;2023-01-08T07:56:39;97754.97;;;9.25;76.32
48622;BME280;34421;48.944;9.460;2023-01-08T07:59:05;97754.13;;;9.25;75.90
48622;BME280;34421;48.944;9.460;2023-01-08T08:01:30;97766.63;;;9.24;76.07
48622;BME280;34421;48.944;9.460;2023-01-08T08:03:55;97757.84;;;9.24;76.97
48622;BME280;34421;48.944;9.460;2023-01-08T08:06:20;97754.38;;;9.23;77.66
48622;BME280;34421;48.944;9.460;2023-01-08T08:08:45;97758.06;;;9.22;76.97
48622;BME280;34421;48.944;9.460;2023-01-08T08:11:11;97756.44;;;9.21;77.14
48622;BME280;34421;48.944;9.460;2023-01-08T08:13:36;97754.00;;;9.20;77.09
48622;BME280;34421;48.944;9.460;2023-01-08T08:16:06;97748.09;;;9.18;77.17
48622;BME280;34421;48.944;9.460;2023-01-08T08:18:31;97754.81;;;9.20;77.18
48622;BME280;34421;48.944;9.460;2023-01-08T08:20:56;97758.66;;;9.24;77.05
48622;BME280;34421;48.944;9.460;2023-01-08T08:23:22;97751.47;;;9.25;77.53
48622;BME280;34421;48.944;9.460;2023-01-08T08:25:47;97755.78;;;9.26;78.16
48622;BME280;34421;48.944;9.460;2023-01-08T08:28:12;97750.47;;;9.26;77.23
48622;BME280;34421;48.944;9.460;2023-01-08T08:30:38;97758.22;;;9.27;78.07
48622;BME280;34421;48.944;9.460;2023-01-08T08:33:05;97753.34;;;9.24;77.31
48622;BME280;34421;48.944;9.460;2023-01-08T08:35:31;97753.34;;;9.24;77.40
48622;BME280;34421;48.944;9.460;2023-01-08T08:37:56;97745.16;;;9.26;77.03
48622;BME280;34421;48.944;9.460;2023-01-08T08:40:22;97744.94;;;9.27;77.13
48622;BME280;34421;48.944;9.460;2023-01-08T08:42:47;97746.56;;;9.28;77.51
48622;BME280;34421;48.944;9.460;2023-01-08T08:45:12;97738.59;;;9.28;77.05
48622;BME280;34421;48.944;9.460;2023-01-08T08:47:37;97743.91;;;9.28;77.52
48622;BME280;34421;48.944;9.460;2023-01-08T08:50:04;97740.81;;;9.31;77.24
48622;BME280;34421;48.944;9.460;2023-01-08T08:52:30;97743.69;;;9.30;78.24
48622;BME280;34421;48.944;9.460;2023-01-08T08:54:55;97739.41;;;9.29;77.02
48622;BME280;34421;48.944;9.460;2023-01-08T08:57:24;97729.16;;;9.32;78.18
48622;BME280;34421;48.944;9.460;2023-01-08T08:59:49;97726.06;;;9.35;77.38
48622;BME280;34421;48.944;9.460;2023-01-08T09:02:14;97735.00;;;9.41;77.18
48622;BME280;34421;48.944;9.460;2023-01-08T09:04:40;97726.34;;;9.46;77.12
48622;BME280;34421;48.944;9.460;2023-01-08T09:07:05;97724.88;;;9.50;77.48
48622;BME280;34421;48.944;9.460;2023-01-08T09:09:30;97727.91;;;9.53;76.98
48622;BME280;34421;48.944;9.460;2023-01-08T09:11:55;97723.75;;;9.57;77.12
48622;BME280;34421;48.944;9.460;2023-01-08T09:14:21;97722.28;;;9.62;76.77
48622;BME280;34421;48.944;9.460;2023-01-08T09:16:46;97727.53;;;9.68;76.83
48622;BME280;34421;48.944;9.460;2023-01-08T09:19:11;97719.56;;;9.68;77.71
48622;BME280;34421;48.944;9.460;2023-01-08T09:21:37;97725.03;;;9.73;76.90
48622;BME280;34421;48.944;9.460;2023-01-08T09:24:02;97720.72;;;9.72;76.36
48622;BME280;34421;48.944;9.460;2023-01-08T09:26:27;97724.66;;;9.70;77.26
48622;BME280;34421;48.944;9.460;2023-01-08T09:28:54;97726.47;;;9.69;76.29
48622;BME280;34421;48.944;9.460;2023-01-08T09:31:19;97723.63;;;9.71;77.41
48622;BME280;34421;48.944;9.460;2023-01-08T09:33:46;97728.69;;;9.72;76.79
48622;BME280;34421;48.944;9.460;2023-01-08T09:36:11;97722.38;;;9.73;76.21
48622;BME280;34421;48.944;9.460;2023-01-08T09:38:36;97721.31;;;9.74;77.17
48622;BME280;34421;48.944;9.460;2023-01-08T09:41:06;97718.66;;;9.74;76.49
48622;BME280;34421;48.944;9.460;2023-01-08T09:43:33;97709.44;;;9.77;76.82
48622;BME280;34421;48.944;9.460;2023-01-08T09:45:59;97715.09;;;9.80;76.81
48622;BME280;34421;48.944;9.460;2023-01-08T09:48:30;97717.91;;;9.86;75.63
48622;BME280;34421;48.944;9.460;2023-01-08T09:50:56;97711.47;;;9.93;76.70
48622;BME280;34421;48.944;9.460;2023-01-08T09:53:21;97707.09;;;9.99;75.39
48622;BME280;34421;48.944;9.460;2023-01-08T09:55:48;97709.53;;;10.00;75.24
48622;BME280;34421;48.944;9.460;2023-01-08T09:58:50;97708.03;;;10.04;75.58
48622;BME280;34421;48.944;9.460;2023-01-08T10:01:09;97713.25;;;10.11;75.35
48622;BME280;34421;48.944;9.460;2023-01-08T10:06:12;97701.00;;;10.10;75.52
48622;BME280;34421;48.944;9.460;2023-01-08T10:08:38;97695.56;;;10.05;75.03
48622;BME280;34421;48.944;9.460;2023-01-08T10:11:04;97698.22;;;10.05;74.88
48622;BME280;34421;48.944;9.460;2023-01-08T10:13:30;97697.19;;;10.06;74.18
48622;BME280;34421;48.944;9.460;2023-01-08T10:15:55;97703.06;;;10.08;74.43
48622;BME280;34421;48.944;9.460;2023-01-08T10:18:21;97705.75;;;10.08;74.44
48622;BME280;34421;48.944;9.460;2023-01-08T10:20:48;97709.44;;;10.07;74.91
48622;BME280;34421;48.944;9.460;2023-01-08T10:23:14;97700.66;;;10.07;74.62
48622;BME280;34421;48.944;9.460;2023-01-08T10:25:50;97708.84;;;10.05;74.43
48622;BME280;34421;48.944;9.460;2023-01-08T10:28:21;97700.06;;;10.04;74.60
48622;BME280;34421;48.944;9.460;2023-01-08T10:30:46;97707.25;;;10.04;74.12
48622;BME280;34421;48.944;9.460;2023-01-08T10:33:14;97705.75;;;10.08;74.64
48622;BME280;34421;48.944;9.460;2023-01-08T10:35:42;97698.16;;;10.12;73.40
48622;BME280;34421;48.944;9.460;2023-01-08T10:38:22;97695.25;;;10.13;74.23
48622;BME280;34421;48.944;9.460;2023-01-08T10:40:48;97688.81;;;10.21;73.49
48622;BME280;34421;48.944;9.460;2023-01-08T10:43:15;97682.59;;;10.27;73.86
48622;BME280;34421;48.944;9.460;2023-01-08T10:45:41;97680.63;;;10.34;72.70
48622;BME280;34421;48.944;9.460;2023-01-08T10:48:16;97680.53;;;10.41;73.70
48622;BME280;34421;48.944;9.460;2023-01-08T10:50:42;97675.34;;;10.46;72.92
48622;BME280;34421;48.944;9.460;2023-01-08T10:53:20;97676.06;;;10.53;72.18
48622;BME280;34421;48.944;9.460;2023-01-08T10:55:55;97677.56;;;10.61;71.57
48622;BME280;34421;48.944;9.460;2023-01-08T10:58:21;97673.19;;;10.66;72.35
48622;BME280;34421;48.944;9.460;2023-01-08T11:00:46;97665.19;;;10.66;70.84
48622;BME280;34421;48.944;9.460;2023-01-08T11:03:18;97665.66;;;10.75;71.93
48622;BME280;34421;48.944;9.460;2023-01-08T11:05:47;97661.16;;;10.76;70.52
48622;BME280;34421;48.944;9.460;2023-01-08T11:08:15;97659.88;;;10.78;70.92
48622;BME280;34421;48.944;9.460;2023-01-08T11:10:41;97664.28;;;10.84;71.29
48622;BME280;34421;48.944;9.460;2023-01-08T11:13:13;97661.63;;;10.84;71.38
48622;BME280;34421;48.944;9.460;2023-01-08T11:15:41;97656.16;;;10.91;70.64
48622;BME280;34421;48.944;9.460;2023-01-08T11:18:10;97652.47;;;10.92;69.76
48622;BME280;34421;48.944;9.460;2023-01-08T11:20:37;97655.59;;;10.89;69.26
48622;BME280;34421;48.944;9.460;2023-01-08T11:23:03;97647.38;;;10.90;69.83
48622;BME280;34421;48.944;9.460;2023-01-08T11:25:28;97650.97;;;10.96;70.32
48622;BME280;34421;48.944;9.460;2023-01-08T11:27:54;97657.44;;;11.00;69.98
48622;BME280;34421;48.944;9.460;2023-01-08T11:30:22;97646.09;;;11.05;69.91
48622;BME280;34421;48.944;9.460;2023-01-08T11:33:00;97649.09;;;11.08;69.38
48622;BME280;34421;48.944;9.460;2023-01-08T11:35:27;97641.69;;;11.10;69.30
48622;BME280;34421;48.944;9.460;2023-01-08T11:38:00;97624.06;;;11.09;69.68
48622;BME280;34421;48.944;9.460;2023-01-08T11:40:36;97622.78;;;11.12;68.98
48622;BME280;34421;48.944;9.460;2023-01-08T11:43:09;97615.84;;;11.11;68.71
48622;BME280;34421;48.944;9.460;2023-01-08T11:45:41;97612.03;;;11.18;69.66
48622;BME280;34421;48.944;9.460;2023-01-08T11:48:13;97610.84;;;11.26;69.21
48622;BME280;34421;48.944;9.460;2023-01-08T11:50:46;97600.03;;;11.33;67.84
48622;BME280;34421;48.944;9.460;2023-01-08T11:53:25;97599.66;;;11.41;67.96
48622;BME280;34421;48.944;9.460;2023-01-08T12:01:18;97569.63;;;11.74;68.14
48622;BME280;34421;48.944;9.460;2023-01-08T12:04:03;97566.16;;;12.02;67.51
48622;BME280;34421;48.944;9.460;2023-01-08T12:06:44;97571.25;;;12.21;66.85
48622;BME280;34421;48.944;9.460;2023-01-08T12:11:57;97560.22;;;12.34;64.43
48622;BME280;34421;48.944;9.460;2023-01-08T12:29:32;97533.56;;;12.00;64.75
48622;BME280;34421;48.944;9.460;2023-01-08T12:37:04;97529.13;;;11.77;65.43
48622;BME280;34421;48.944;9.460;2023-01-08T12:39:42;97519.53;;;11.76;65.49
48622;BME280;34421;48.944;9.460;2023-01-08T12:42:10;97523.25;;;11.75;64.64
48622;BME280;34421;48.944;9.460;2023-01-08T12:44:37;97529.31;;;11.71;65.27
48622;BME280;34421;48.944;9.460;2023-01-08T12:47:04;97521.47;;;11.64;65.21
48622;BME280;34421;48.944;9.460;2023-01-08T12:49:38;97526.22;;;11.62;65.28
48622;BME280;34421;48.944;9.460;2023-01-08T13:04:43;97522.44;;;11.58;65.02
48622;BME280;34421;48.944;9.460;2023-01-08T13:07:11;97516.84;;;11.59;65.24
48622;BME280;34421;48.944;9.460;2023-01-08T13:09:37;97505.03;;;11.55;65.21
48622;BME280;34421;48.944;9.460;2023-01-08T13:12:03;97500.84;;;11.59;66.21
48622;BME280;34421;48.944;9.460;2023-01-08T13:14:28;97498.75;;;11.61;64.59
48622;BME280;34421;48.944;9.460;2023-01-08T13:17:05;97501.50;;;11.67;64.52
48622;BME280;34421;48.944;9.460;2023-01-08T13:19:41;97504.25;;;11.72;64.32
48622;BME280;34421;48.944;9.460;2023-01-08T13:22:22;97508.38;;;11.79;64.87
48622;BME280;34421;48.944;9.460;2023-01-08T13:24:48;97494.34;;;11.84;64.50
48622;BME280;34421;48.944;9.460;2023-01-08T13:29:42;97485.13;;;11.92;64.34
48622;BME280;34421;48.944;9.460;2023-01-08T13:34:58;97491.75;;;11.89;63.58
48622;BME280;34421;48.944;9.460;2023-01-08T13:37:24;97486.69;;;11.88;64.57
48622;BME280;34421;48.944;9.460;2023-01-08T13:39:49;97489.91;;;11.90;64.24
48622;BME280;34421;48.944;9.460;2023-01-08T13:42:21;97486.75;;;11.93;64.75
48622;BME280;34421;48.944;9.460;2023-01-08T13:44:48;97483.53;;;11.91;63.93
48622;BME280;34421;48.944;9.460;2023-01-08T13:47:16;97477.63;;;11.89;64.31
48622;BME280;34421;48.944;9.460;2023-01-08T13:52:26;97474.03;;;11.83;63.21
48622;BME280;34421;48.944;9.460;2023-01-08T13:54:54;97462.25;;;11.79;64.16
48622;BME280;34421;48.944;9.460;2023-01-08T13:57:19;97471.97;;;11.85;64.16
48622;BME280;34421;48.944;9.460;2023-01-08T13:59:55;97464.28;;;11.89;64.38
48622;BME280;34421;48.944;9.460;2023-01-08T14:02:31;97455.56;;;11.93;63.90
48622;BME280;34421;48.944;9.460;2023-01-08T14:04:57;97459.97;;;12.04;63.78
48622;BME280;34421;48.944;9.460;2023-01-08T14:07:23;97456.72;;;12.19;63.54
48622;BME280;34421;48.944;9.460;2023-01-08T14:09:49;97445.53;;;12.39;63.55
48622;BME280;34421;48.944;9.460;2023-01-08T14:12:15;97443.84;;;12.55;63.06